Terminal Aerodrome Forecast
Issued by NWS Tampa Bay Area, FL

Home | Current Version | Previous Version | Text Only | Print | Product List | Glossary On
Versions: 1 2 3 4 5 6 7 8 9 10 11 12 13 14 15 16 17 18 19 20 21 22 23 24 25 26 27 28 29
000
FTUS42 KTBW 040200 AAA
TAFTPA
TAF AMD
KTPA 040256Z 0403/0424 VRB03KT P6SM FEW060 SCT250
     FM040800 VRB03KT 4SM BR SCT010
      TEMPO 0409/0413 1SM BR BKN010
     FM041400 16008KT P6SM SCT015
     FM041900 20010KT P6SM SCT035=

USA.gov is the U.S. government's official web portal to all federal, state and local government web resources and services.